Time;durP1;ratioP1;P1;durP2;ratioP2;P2;SDS_P1;SDS_P2;PMS_P1;PMS_P2;Temp;Humidity;BMP_temperature;BMP_pressure;BME280_temperature;BME280_humidity;BME280_pressure;Samples;Min_cycle;Max_cycle;Signal;HPM_P1;HPM_P2
2022/12/12 00:01:58;;;;;;;7.18;4.80;;;18.40;43.30;;;;;;5052265;28;20049;-42
2022/12/12 00:04:25;;;;;;;5.93;4.57;;;18.40;43.30;;;;;;5052328;28;20056;-40
2022/12/12 00:06:53;;;;;;;6.32;4.68;;;18.40;43.40;;;;;;5052280;28;20063;-40
2022/12/12 00:09:19;;;;;;;5.90;4.50;;;18.40;43.40;;;;;;5052761;28;20410;-41
2022/12/12 00:11:46;;;;;;;6.32;4.43;;;18.30;43.40;;;;;;5052320;28;20051;-43
2022/12/12 00:14:13;;;;;;;7.15;4.95;;;18.30;43.40;;;;;;5051941;28;20047;-41
2022/12/12 00:16:40;;;;;;;7.00;4.70;;;18.30;43.50;;;;;;5032220;28;20058;-40
2022/12/12 00:19:07;;;;;;;6.22;4.78;;;18.20;43.50;;;;;;5032181;28;20055;-39
2022/12/12 00:21:34;;;;;;;6.45;4.72;;;18.20;43.50;;;;;;5032215;28;20045;-42
2022/12/12 00:24:02;;;;;;;6.45;4.70;;;18.20;43.50;;;;;;5031813;28;20055;-39
2022/12/12 00:26:29;;;;;;;5.80;4.47;;;18.20;43.60;;;;;;5032203;28;20498;-38
2022/12/12 00:28:56;;;;;;;6.82;4.93;;;18.10;43.50;;;;;;5041904;28;20055;-42
2022/12/12 00:31:23;;;;;;;5.93;4.70;;;18.10;43.60;;;;;;5052060;28;20044;-42
2022/12/12 00:33:50;;;;;;;6.65;4.85;;;18.10;43.60;;;;;;5051841;28;20053;-40
2022/12/12 00:36:17;;;;;;;6.38;4.60;;;18.00;43.60;;;;;;5051109;28;20133;-37
2022/12/12 00:38:43;;;;;;;6.10;4.78;;;18.00;43.70;;;;;;5052333;28;20045;-42
2022/12/12 00:41:12;;;;;;;5.43;4.35;;;18.00;43.70;;;;;;5051801;28;20045;-40
2022/12/12 00:43:38;;;;;;;7.30;5.40;;;18.00;43.70;;;;;;5051483;28;20044;-39
2022/12/12 00:46:05;;;;;;;6.53;4.65;;;17.90;43.60;;;;;;5051796;28;20052;-39
2022/12/12 00:48:32;;;;;;;6.88;4.95;;;17.90;43.70;;;;;;5051310;28;20179;-42
2022/12/12 00:51:04;;;;;;;7.95;5.00;;;17.90;43.70;;;;;;5051525;28;20059;-38
2022/12/12 00:53:31;;;;;;;7.10;4.95;;;17.90;43.80;;;;;;5051656;28;20482;-40
2022/12/12 00:55:57;;;;;;;6.40;4.78;;;17.80;43.70;;;;;;5051626;28;20053;-40
2022/12/12 00:58:26;;;;;;;9.23;5.07;;;17.80;43.80;;;;;;5051389;28;20055;-42
2022/12/12 01:00:52;;;;;;;7.50;4.85;;;17.80;43.80;;;;;;5050316;28;20183;-42
2022/12/12 01:03:19;;;;;;;6.28;4.70;;;17.80;43.80;;;;;;5051443;28;20049;-40
2022/12/12 01:05:47;;;;;;;7.15;4.97;;;17.80;43.90;;;;;;5051884;28;20402;-42
2022/12/12 01:08:13;;;;;;;6.60;4.80;;;17.70;43.80;;;;;;5051641;28;20077;-40
2022/12/12 01:10:40;;;;;;;6.40;4.75;;;17.70;43.90;;;;;;5051658;28;20052;-40
2022/12/12 01:13:07;;;;;;;6.25;4.65;;;17.60;43.90;;;;;;5051011;28;20045;-39
2022/12/12 01:15:35;;;;;;;5.97;4.60;;;17.60;43.90;;;;;;5051343;28;20045;-40
2022/12/12 01:18:02;;;;;;;7.60;5.10;;;17.60;43.90;;;;;;5051708;28;20108;-40
2022/12/12 01:20:28;;;;;;;6.15;4.90;;;17.60;44.00;;;;;;5051507;28;20067;-40
2022/12/12 01:22:55;;;;;;;8.25;5.15;;;17.60;44.00;;;;;;5051285;28;20417;-40
2022/12/12 01:25:22;;;;;;;6.50;5.03;;;17.60;44.00;;;;;;5050812;28;20053;-39
2022/12/12 01:27:49;;;;;;;6.68;5.10;;;17.50;44.00;;;;;;5051317;28;20509;-42
2022/12/12 01:30:17;;;;;;;6.93;5.20;;;17.50;44.00;;;;;;5051264;28;20083;-39
2022/12/12 01:32:45;;;;;;;6.35;4.88;;;17.50;44.10;;;;;;5051338;28;20131;-41
2022/12/12 01:35:12;;;;;;;7.78;5.13;;;17.50;44.10;;;;;;5051244;28;20049;-40
2022/12/12 01:37:39;;;;;;;6.05;4.93;;;17.40;44.10;;;;;;5050856;28;20049;-40
2022/12/12 01:40:08;;;;;;;6.25;4.82;;;17.40;44.20;;;;;;5051309;28;20142;-42
2022/12/12 01:42:35;;;;;;;7.55;5.10;;;17.40;44.20;;;;;;5051042;28;20075;-39
2022/12/12 01:45:02;;;;;;;6.95;4.85;;;17.30;44.20;;;;;;5050982;28;20052;-39
2022/12/12 01:47:29;;;;;;;6.82;4.80;;;17.30;44.30;;;;;;5051511;28;20446;-40
2022/12/12 01:49:59;;;;;;;5.43;4.65;;;17.30;44.30;;;;;;5051203;28;20128;-38
2022/12/12 01:52:28;;;;;;;7.43;5.20;;;17.30;44.40;;;;;;5049930;28;20056;-42
2022/12/12 01:54:56;;;;;;;5.65;4.50;;;17.20;44.30;;;;;;5050917;28;20128;-40
2022/12/12 01:57:26;;;;;;;8.50;5.28;;;17.20;44.40;;;;;;5050410;28;20091;-40
2022/12/12 01:59:53;;;;;;;7.10;4.90;;;17.20;44.40;;;;;;5051122;28;20049;-40
2022/12/12 02:02:19;;;;;;;6.85;4.60;;;17.20;44.40;;;;;;5054237;28;20052;-42
2022/12/12 02:04:46;;;;;;;6.10;4.72;;;17.20;44.40;;;;;;5053485;28;20545;-39
2022/12/12 02:07:16;;;;;;;6.50;4.82;;;17.20;44.50;;;;;;5054595;28;20132;-40
2022/12/12 02:09:43;;;;;;;7.32;5.25;;;17.10;44.40;;;;;;5054475;28;20084;-38
2022/12/12 02:12:11;;;;;;;6.47;4.82;;;17.10;44.50;;;;;;5053485;28;20401;-40
2022/12/12 02:14:40;;;;;;;5.95;4.97;;;17.10;44.60;;;;;;5054574;28;20045;-39
2022/12/12 02:17:17;;;;;;;6.40;4.65;;;17.10;44.70;;;;;;5054666;28;20063;-40
2022/12/12 02:20:28;;;;;;;8.00;5.35;;;17.00;44.70;;;;;;5054490;28;20045;-42
2022/12/12 02:23:30;;;;;;;6.80;4.93;;;17.00;44.70;;;;;;4976150;28;20054;-39
2022/12/12 02:26:35;;;;;;;7.95;4.78;;;17.00;44.80;;;;;;4957171;28;20062;-40
2022/12/12 02:29:14;;;;;;;6.72;5.35;;;17.00;44.80;;;;;;5046269;28;20047;-40
2022/12/12 02:31:44;;;;;;;6.55;4.70;;;16.90;44.80;;;;;;5052580;28;20049;-39
2022/12/12 02:34:13;;;;;;;6.13;4.80;;;16.90;44.90;;;;;;5053519;28;20048;-39
2022/12/12 02:36:43;;;;;;;6.90;5.25;;;16.90;44.90;;;;;;5052980;28;20051;-40
2022/12/12 02:39:13;;;;;;;7.63;5.53;;;16.90;44.90;;;;;;5054001;28;20049;-40
2022/12/12 02:41:42;;;;;;;6.95;5.43;;;16.90;45.00;;;;;;5054180;28;20051;-42
2022/12/12 02:44:14;;;;;;;9.30;5.18;;;16.90;45.00;;;;;;5053565;28;20545;-42
2022/12/12 02:46:45;;;;;;;6.50;5.10;;;16.90;45.10;;;;;;5052615;28;20045;-39
2022/12/12 02:49:14;;;;;;;6.60;4.50;;;16.90;45.20;;;;;;5053110;28;20072;-39
2022/12/12 02:51:41;;;;;;;5.25;4.70;;;16.90;45.20;;;;;;5053420;28;20059;-41
2022/12/12 02:54:13;;;;;;;6.63;4.97;;;16.90;45.20;;;;;;5053345;28;20041;-39
2022/12/12 02:56:49;;;;;;;6.18;4.88;;;16.90;45.20;;;;;;5051518;28;20044;-41
2022/12/12 02:59:20;;;;;;;7.40;5.28;;;16.90;45.20;;;;;;5049349;28;20419;-40
2022/12/12 03:01:55;;;;;;;6.35;4.65;;;16.90;45.20;;;;;;5053433;28;20072;-43
2022/12/12 03:10:01;;;;;;;6.40;4.90;;;17.00;45.30;;;;;;5051471;28;20041;-42
2022/12/12 03:12:33;;;;;;;7.30;5.13;;;17.00;45.20;;;;;;5049344;28;20051;-42
2022/12/12 03:15:05;;;;;;;6.00;4.25;;;17.10;45.20;;;;;;5053061;28;20049;-42
2022/12/12 03:17:36;;;;;;;5.97;4.40;;;17.10;45.30;;;;;;5052995;28;20462;-40
2022/12/12 03:20:06;;;;;;;6.40;4.90;;;17.10;45.20;;;;;;5052571;28;20041;-40
2022/12/12 03:22:37;;;;;;;6.20;4.68;;;17.20;45.90;;;;;;5050986;28;20549;-38
2022/12/12 03:25:05;;;;;;;6.68;4.85;;;17.20;45.20;;;;;;5052573;28;20125;-41
2022/12/12 03:27:34;;;;;;;6.47;4.80;;;17.20;45.20;;;;;;5053169;28;20053;-40
2022/12/12 03:30:02;;;;;;;7.03;5.15;;;17.30;45.20;;;;;;5053503;28;20045;-40
2022/12/12 03:32:30;;;;;;;7.07;4.90;;;17.40;45.20;;;;;;5052883;28;20053;-42
2022/12/12 03:35:01;;;;;;;6.85;5.15;;;17.30;45.70;;;;;;5052800;28;20432;-39
2022/12/12 03:37:30;;;;;;;9.93;4.72;;;17.40;45.20;;;;;;5052146;28;20517;-42
2022/12/12 03:39:57;;;;;;;6.03;4.63;;;17.40;45.10;;;;;;5052956;28;20485;-41
2022/12/12 03:42:25;;;;;;;6.18;4.53;;;17.40;45.10;;;;;;5052789;28;20049;-40
2022/12/12 03:44:55;;;;;;;6.93;5.13;;;17.50;45.10;;;;;;5052721;28;20052;-39
2022/12/12 03:47:24;;;;;;;5.97;4.38;;;17.50;45.00;;;;;;5052279;28;20053;-40
2022/12/12 03:49:52;;;;;;;7.30;4.57;;;17.50;45.10;;;;;;5052396;28;20067;-41
2022/12/12 03:52:22;;;;;;;6.68;4.50;;;17.50;45.10;;;;;;5052544;28;20481;-39
2022/12/12 03:54:51;;;;;;;6.32;5.10;;;17.60;45.10;;;;;;5052604;28;20053;-39
2022/12/12 03:57:19;;;;;;;7.45;4.72;;;17.60;45.10;;;;;;5052629;28;20091;-39
2022/12/12 03:59:47;;;;;;;5.93;4.50;;;17.60;45.00;;;;;;5052655;28;20055;-40
2022/12/12 04:02:16;;;;;;;7.68;4.70;;;17.60;45.00;;;;;;5052136;28;20051;-39
2022/12/12 04:04:45;;;;;;;8.15;4.47;;;17.70;45.00;;;;;;5052314;28;20057;-40
2022/12/12 04:07:14;;;;;;;6.10;4.55;;;17.70;45.00;;;;;;5052105;28;20047;-40
2022/12/12 04:15:23;;;;;;;6.40;4.50;;;17.70;44.90;;;;;;5050775;28;20437;-40
2022/12/12 04:17:56;;;;;;;5.97;4.65;;;17.70;44.90;;;;;;5050151;28;20512;-40
2022/12/12 04:23:17;;;;;;;6.93;5.15;;;17.80;44.90;;;;;;5031891;28;20060;-42
2022/12/12 04:28:46;;;;;;;5.43;4.40;;;17.80;44.40;;;;;;5032158;28;20417;-39
2022/12/12 04:31:12;;;;;;;6.05;4.10;;;17.80;44.40;;;;;;5049048;28;20052;-39
2022/12/12 04:33:41;;;;;;;6.95;4.50;;;17.80;44.50;;;;;;5051522;28;20049;-40
2022/12/12 04:36:09;;;;;;;6.22;4.75;;;17.80;44.50;;;;;;5051505;28;20397;-37
2022/12/12 04:38:35;;;;;;;6.97;4.65;;;17.80;44.60;;;;;;5051944;28;20052;-40
2022/12/12 04:41:03;;;;;;;6.78;4.85;;;17.80;44.50;;;;;;5051888;28;20051;-39
2022/12/12 04:43:33;;;;;;;7.53;4.45;;;17.80;44.50;;;;;;5051249;28;20159;-39
2022/12/12 04:46:01;;;;;;;8.43;4.63;;;17.80;44.50;;;;;;5051768;28;20052;-40
2022/12/12 04:48:29;;;;;;;5.82;4.53;;;17.80;44.50;;;;;;5051940;28;20057;-37
2022/12/12 04:50:55;;;;;;;6.13;4.35;;;17.80;44.50;;;;;;5051829;28;20490;-40
2022/12/12 04:53:26;;;;;;;7.35;4.80;;;17.80;44.40;;;;;;5051459;28;20056;-42
2022/12/12 04:55:55;;;;;;;6.75;5.00;;;17.80;44.40;;;;;;5051686;28;20053;-39
2022/12/12 04:58:23;;;;;;;6.30;4.35;;;17.80;44.40;;;;;;5051741;28;20055;-40
2022/12/12 05:00:53;;;;;;;8.95;4.80;;;17.80;44.40;;;;;;5051595;28;20045;-37
2022/12/12 05:03:21;;;;;;;6.10;4.75;;;17.80;44.40;;;;;;5051700;28;20055;-40
2022/12/12 05:05:51;;;;;;;7.22;4.75;;;17.80;44.40;;;;;;5051245;28;20053;-40
2022/12/12 05:08:21;;;;;;;7.93;5.18;;;17.80;44.30;;;;;;5051628;28;20521;-41
2022/12/12 05:10:50;;;;;;;6.43;4.95;;;17.80;44.30;;;;;;5051650;28;20051;-38
2022/12/12 05:13:18;;;;;;;7.45;5.20;;;17.80;44.30;;;;;;5051120;28;20048;-42
2022/12/12 05:15:46;;;;;;;6.10;4.72;;;17.80;44.30;;;;;;5051690;28;20127;-38
2022/12/12 05:18:13;;;;;;;5.72;4.57;;;17.90;44.30;;;;;;5051658;28;20067;-41
2022/12/12 05:20:40;;;;;;;6.30;4.55;;;17.80;44.20;;;;;;5051440;28;20132;-40
2022/12/12 05:23:06;;;;;;;6.50;5.25;;;17.90;44.30;;;;;;5051236;28;20045;-37
2022/12/12 05:25:33;;;;;;;6.28;4.78;;;17.90;44.30;;;;;;5051163;28;20045;-40
2022/12/12 05:28:00;;;;;;;6.70;4.85;;;17.90;44.30;;;;;;5050978;28;20136;-42
2022/12/12 05:30:27;;;;;;;6.53;4.70;;;17.90;44.20;;;;;;5051149;28;20417;-39
2022/12/12 05:32:55;;;;;;;6.05;4.70;;;17.90;44.20;;;;;;5051029;28;20049;-40
2022/12/12 05:35:22;;;;;;;7.15;5.20;;;17.90;44.20;;;;;;5051750;28;20088;-39
2022/12/12 05:37:49;;;;;;;6.68;5.05;;;17.90;44.20;;;;;;5054641;28;20059;-40
2022/12/12 05:40:15;;;;;;;6.85;4.90;;;17.90;44.20;;;;;;5053805;28;20136;-42
2022/12/12 05:42:42;;;;;;;6.65;4.93;;;18.00;44.20;;;;;;5055086;28;20132;-42
2022/12/12 05:45:10;;;;;;;5.72;4.57;;;18.00;44.20;;;;;;5055313;28;20055;-38
2022/12/12 05:47:37;;;;;;;8.23;5.35;;;18.00;44.20;;;;;;5055067;28;20056;-39
2022/12/12 05:50:06;;;;;;;6.70;5.15;;;18.00;44.20;;;;;;5054863;28;20045;-41
2022/12/12 05:52:32;;;;;;;7.35;5.35;;;18.00;44.20;;;;;;5054795;28;20055;-39
2022/12/12 05:54:59;;;;;;;9.68;4.82;;;18.00;44.30;;;;;;5054554;28;20044;-40
2022/12/12 05:57:26;;;;;;;7.00;5.28;;;18.10;44.40;;;;;;5054797;28;20146;-40
2022/12/12 05:59:53;;;;;;;6.45;5.03;;;18.10;44.40;;;;;;5055250;28;20049;-40
2022/12/12 06:02:19;;;;;;;7.40;5.43;;;18.10;44.40;;;;;;5054777;28;20044;-39
2022/12/12 06:04:46;;;;;;;8.35;5.07;;;18.20;44.50;;;;;;5054735;28;20140;-42
2022/12/12 06:07:14;;;;;;;6.57;5.03;;;18.20;44.50;;;;;;5054524;28;20060;-39
2022/12/12 06:09:41;;;;;;;7.22;5.43;;;18.20;44.40;;;;;;5054673;28;20433;-40
2022/12/12 06:12:07;;;;;;;6.68;5.20;;;18.20;44.40;;;;;;5054407;28;20055;-40
2022/12/12 06:14:34;;;;;;;7.03;4.75;;;18.30;44.40;;;;;;5054612;28;20045;-40
2022/12/12 06:17:01;;;;;;;9.48;5.13;;;18.30;44.40;;;;;;5054688;28;20116;-40
2022/12/12 06:19:27;;;;;;;7.10;5.05;;;18.40;44.40;;;;;;5053428;28;20041;-39
2022/12/12 06:21:54;;;;;;;7.03;4.57;;;18.40;44.40;;;;;;5053087;28;20049;-39
2022/12/12 06:24:22;;;;;;;12.10;5.60;;;18.40;44.40;;;;;;5052677;28;20482;-42
2022/12/12 06:26:49;;;;;;;6.70;5.53;;;18.50;44.30;;;;;;5054006;28;20430;-41
2022/12/12 06:29:15;;;;;;;8.60;5.10;;;18.50;44.20;;;;;;5054298;28;20079;-38
2022/12/12 06:31:42;;;;;;;7.53;5.30;;;18.60;44.20;;;;;;5053337;28;20063;-42
2022/12/12 06:34:09;;;;;;;7.47;5.15;;;18.60;44.20;;;;;;5053633;28;20131;-40
2022/12/12 06:36:36;;;;;;;6.68;5.28;;;18.60;44.20;;;;;;5051608;28;20037;-40
2022/12/12 06:39:03;;;;;;;6.72;4.93;;;18.70;44.20;;;;;;5053360;28;20052;-41
2022/12/12 06:41:32;;;;;;;7.57;4.88;;;18.70;44.10;;;;;;5052312;28;20059;-39
2022/12/12 06:43:58;;;;;;;9.65;4.93;;;18.80;44.20;;;;;;5052155;28;20077;-39
2022/12/12 06:46:26;;;;;;;8.45;5.18;;;18.80;44.20;;;;;;5053025;28;20059;-39
2022/12/12 06:48:53;;;;;;;6.15;5.18;;;18.80;44.20;;;;;;5053164;28;20071;-41
2022/12/12 06:51:20;;;;;;;6.68;5.20;;;18.80;44.10;;;;;;5053619;28;20386;-40
2022/12/12 06:53:47;;;;;;;7.15;5.22;;;18.90;44.00;;;;;;5053462;28;20044;-40
2022/12/12 06:56:16;;;;;;;6.47;4.80;;;18.90;44.00;;;;;;5053640;28;20505;-41
2022/12/12 06:58:44;;;;;;;9.75;5.00;;;19.00;44.00;;;;;;5053686;28;20059;-40
2022/12/12 07:01:11;;;;;;;7.65;4.72;;;19.00;43.90;;;;;;5053483;28;20041;-39
2022/12/12 07:03:38;;;;;;;8.20;5.20;;;19.00;43.90;;;;;;5052175;28;20049;-40
2022/12/12 07:06:05;;;;;;;8.93;4.90;;;19.00;43.90;;;;;;5048349;28;20045;-41
2022/12/12 07:08:31;;;;;;;6.80;5.25;;;19.10;43.90;;;;;;5053685;28;20471;-40
2022/12/12 07:11:03;;;;;;;7.10;5.05;;;19.10;43.80;;;;;;5053626;28;20051;-42
2022/12/12 07:13:30;;;;;;;7.30;5.25;;;19.20;43.80;;;;;;5053361;28;20607;-39
2022/12/12 07:15:59;;;;;;;7.28;5.13;;;19.10;43.70;;;;;;5052410;28;20045;-40
2022/12/12 07:18:25;;;;;;;7.15;5.13;;;19.20;43.70;;;;;;5053486;28;20155;-40
2022/12/12 07:20:52;;;;;;;10.65;5.68;;;19.20;43.60;;;;;;5053069;28;20074;-40
2022/12/12 07:23:19;;;;;;;7.10;4.82;;;19.30;43.60;;;;;;5053253;28;20052;-39
2022/12/12 07:25:45;;;;;;;6.03;4.70;;;19.30;43.60;;;;;;5051247;28;20106;-40
2022/12/12 07:28:13;;;;;;;7.28;5.55;;;19.30;43.50;;;;;;5052561;28;20049;-39
2022/12/12 07:30:40;;;;;;;6.28;4.72;;;19.40;43.50;;;;;;5052469;28;20059;-41
2022/12/12 07:33:08;;;;;;;7.43;5.45;;;19.40;43.40;;;;;;5052340;28;20513;-42
2022/12/12 07:35:35;;;;;;;7.57;5.32;;;19.40;43.40;;;;;;5052937;28;20055;-40
2022/12/12 07:38:02;;;;;;;7.28;5.63;;;19.40;43.40;;;;;;5052503;28;20052;-41
2022/12/12 07:40:28;;;;;;;7.00;5.10;;;19.40;43.30;;;;;;5053285;28;20087;-39
2022/12/12 07:42:55;;;;;;;8.02;5.05;;;19.50;43.40;;;;;;5052436;28;20056;-42
2022/12/12 07:45:22;;;;;;;7.57;5.50;;;19.60;43.30;;;;;;5052841;28;20559;-40
2022/12/12 07:47:48;;;;;;;6.55;4.97;;;19.60;43.30;;;;;;5052869;28;20051;-40
2022/12/12 07:50:16;;;;;;;7.32;5.15;;;19.60;43.20;;;;;;5052702;28;20041;-42
2022/12/12 07:52:43;;;;;;;7.82;5.40;;;19.60;43.20;;;;;;5051860;28;20049;-42
2022/12/12 07:55:10;;;;;;;6.93;5.25;;;19.70;43.20;;;;;;5052540;28;20056;-42
2022/12/12 07:57:36;;;;;;;8.20;5.30;;;19.70;43.10;;;;;;5052433;28;20059;-40
2022/12/12 08:00:04;;;;;;;8.25;5.80;;;19.70;43.10;;;;;;5052098;28;20072;-42
2022/12/12 08:02:31;;;;;;;7.55;5.50;;;19.80;43.10;;;;;;5052488;28;20434;-40
2022/12/12 08:04:58;;;;;;;7.22;5.50;;;19.80;43.00;;;;;;5052675;28;20045;-40
2022/12/12 08:07:26;;;;;;;6.78;5.50;;;19.80;43.00;;;;;;5052269;28;20041;-42
2022/12/12 08:09:52;;;;;;;6.20;5.10;;;19.80;42.90;;;;;;5052508;28;20049;-40
2022/12/12 08:12:19;;;;;;;7.18;5.03;;;19.90;42.90;;;;;;5051808;28;20045;-39
2022/12/12 08:14:46;;;;;;;6.70;5.30;;;19.90;42.90;;;;;;5052334;28;20057;-38
2022/12/12 08:17:13;;;;;;;9.52;5.80;;;19.90;42.80;;;;;;5051890;28;20041;-41
2022/12/12 08:19:40;;;;;;;8.50;5.22;;;19.90;42.80;;;;;;5051951;28;20049;-38
2022/12/12 08:22:08;;;;;;;7.03;5.05;;;20.00;42.80;;;;;;5050353;28;20060;-40
2022/12/12 08:24:36;;;;;;;7.63;5.38;;;20.00;42.80;;;;;;5051220;28;20445;-42
2022/12/12 08:27:02;;;;;;;7.32;5.70;;;20.00;43.30;;;;;;5051655;28;20049;-40
2022/12/12 08:29:29;;;;;;;7.55;5.70;;;20.00;42.60;;;;;;5052199;28;20053;-39
2022/12/12 08:31:56;;;;;;;7.47;5.70;;;20.10;42.60;;;;;;5051652;28;20045;-42
2022/12/12 08:34:23;;;;;;;8.15;5.63;;;20.10;42.50;;;;;;5051812;28;20049;-39
2022/12/12 08:36:51;;;;;;;8.88;5.95;;;20.10;42.50;;;;;;5051234;28;20136;-40
2022/12/12 08:39:17;;;;;;;8.73;5.50;;;20.10;42.40;;;;;;5051900;28;20052;-39
2022/12/12 08:41:47;;;;;;;8.85;5.55;;;20.10;42.40;;;;;;5051957;28;20044;-40
2022/12/12 08:44:14;;;;;;;8.18;5.40;;;20.20;42.50;;;;;;5051275;28;20116;-40
2022/12/12 08:46:41;;;;;;;6.82;5.22;;;20.20;42.50;;;;;;5050946;28;20040;-39
2022/12/12 08:49:07;;;;;;;6.93;5.40;;;20.20;42.50;;;;;;5051713;28;20044;-40
2022/12/12 08:51:34;;;;;;;6.97;5.05;;;20.20;42.50;;;;;;5051859;28;20102;-40
2022/12/12 08:54:01;;;;;;;7.32;5.25;;;20.30;42.60;;;;;;5051028;28;20044;-39
2022/12/12 08:56:28;;;;;;;7.93;5.38;;;20.30;42.60;;;;;;5050957;28;20052;-41
2022/12/12 08:58:56;;;;;;;6.75;5.18;;;20.30;42.60;;;;;;5051351;28;20128;-40
2022/12/12 09:01:23;;;;;;;7.40;5.03;;;20.30;42.60;;;;;;5051272;28;20565;-39
2022/12/12 09:03:50;;;;;;;7.00;5.55;;;20.40;42.80;;;;;;5050965;28;20052;-40
2022/12/12 09:06:17;;;;;;;7.55;5.25;;;20.40;42.70;;;;;;5051562;28;20494;-42
2022/12/12 09:08:44;;;;;;;7.03;5.13;;;20.40;42.70;;;;;;5050200;28;20413;-37
2022/12/12 09:11:11;;;;;;;7.38;5.03;;;20.40;42.70;;;;;;5053356;28;20041;-40
2022/12/12 09:13:38;;;;;;;7.35;5.40;;;20.50;42.70;;;;;;5055177;28;20048;-39
2022/12/12 09:16:07;;;;;;;7.57;5.30;;;20.50;42.80;;;;;;5055306;28;20158;-40
2022/12/12 09:18:33;;;;;;;7.78;5.43;;;20.50;42.70;;;;;;5055651;28;20052;-41
2022/12/12 09:21:00;;;;;;;7.63;5.82;;;20.50;42.70;;;;;;5054238;28;20056;-39
2022/12/12 09:23:27;;;;;;;7.47;5.28;;;20.50;42.70;;;;;;5054897;28;20115;-40
2022/12/12 09:25:54;;;;;;;8.27;5.63;;;20.50;42.70;;;;;;5054459;28;20045;-41
2022/12/12 09:28:22;;;;;;;6.80;5.28;;;20.50;42.70;;;;;;5055501;28;20048;-40
2022/12/12 09:30:49;;;;;;;7.28;5.25;;;20.50;42.70;;;;;;5055387;28;20049;-39
2022/12/12 09:33:17;;;;;;;7.10;5.15;;;20.60;42.70;;;;;;5055302;28;20246;-39
2022/12/12 09:35:44;;;;;;;8.38;6.13;;;20.60;42.60;;;;;;5055073;28;20052;-42
2022/12/12 09:38:11;;;;;;;6.90;5.50;;;20.60;42.60;;;;;;5054877;28;20128;-42
2022/12/12 09:40:39;;;;;;;9.57;6.10;;;20.60;42.60;;;;;;5054800;28;20596;-40
2022/12/12 09:43:06;;;;;;;9.48;6.00;;;20.70;42.70;;;;;;5054387;28;20053;-43
2022/12/12 09:45:35;;;;;;;12.82;5.78;;;20.70;42.60;;;;;;5053506;28;20059;-39
2022/12/12 09:48:02;;;;;;;10.38;5.65;;;20.70;42.60;;;;;;5054311;28;20045;-42
2022/12/12 09:50:32;;;;;;;13.30;5.80;;;20.70;42.60;;;;;;5054901;28;20063;-39
2022/12/12 09:53:00;;;;;;;9.30;5.72;;;20.70;42.60;;;;;;5054719;28;20493;-39
2022/12/12 09:55:34;;;;;;;8.00;5.30;;;20.70;42.70;;;;;;5054705;28;20053;-40
2022/12/12 09:58:04;;;;;;;8.70;5.93;;;20.70;42.70;;;;;;5055000;28;20434;-42
2022/12/12 10:00:31;;;;;;;8.45;5.63;;;20.80;42.70;;;;;;5053588;28;20060;-41
2022/12/12 10:03:05;;;;;;;9.82;6.05;;;20.80;42.80;;;;;;5054878;28;20156;-41
2022/12/12 10:05:37;;;;;;;9.60;5.78;;;20.80;42.80;;;;;;5054943;28;20084;-40
2022/12/12 10:08:06;;;;;;;8.90;6.18;;;20.80;42.80;;;;;;5054275;28;20037;-40
2022/12/12 10:10:34;;;;;;;7.10;5.40;;;20.80;42.80;;;;;;5054404;28;20048;-40
2022/12/12 10:13:01;;;;;;;6.53;5.05;;;20.80;42.80;;;;;;5054522;28;20060;-42
2022/12/12 10:15:31;;;;;;;7.60;5.57;;;20.80;42.70;;;;;;5053817;28;20052;-40
2022/12/12 10:17:59;;;;;;;10.02;5.90;;;20.90;42.80;;;;;;5054185;28;20121;-39
2022/12/12 10:20:27;;;;;;;9.98;5.97;;;20.90;42.80;;;;;;5052296;28;20409;-40
2022/12/12 10:22:58;;;;;;;8.82;5.70;;;20.90;42.80;;;;;;5053686;28;20412;-42
2022/12/12 10:25:27;;;;;;;7.53;5.75;;;20.90;42.80;;;;;;5053464;28;20049;-42
2022/12/12 10:27:54;;;;;;;9.00;5.32;;;21.00;42.90;;;;;;5053592;28;20415;-42
2022/12/12 10:30:21;;;;;;;8.57;5.57;;;20.90;42.80;;;;;;5053822;28;20055;-38
2022/12/12 10:32:57;;;;;;;8.13;5.85;;;21.00;42.90;;;;;;5054111;28;20048;-42
2022/12/12 10:35:27;;;;;;;7.90;5.32;;;21.00;42.80;;;;;;5052841;28;20049;-42
2022/12/12 10:38:01;;;;;;;8.05;6.13;;;21.10;42.90;;;;;;5052623;28;20041;-41
2022/12/12 10:40:40;;;;;;;8.93;6.40;;;21.00;42.80;;;;;;5053030;28;20056;-42
2022/12/12 10:43:10;;;;;;;7.43;5.28;;;21.00;42.80;;;;;;5053291;28;20045;-41
2022/12/12 10:45:44;;;;;;;8.27;5.80;;;21.00;42.80;;;;;;5051516;28;20055;-40
2022/12/12 10:48:11;;;;;;;8.45;5.47;;;21.00;42.90;;;;;;5053342;28;20041;-40
2022/12/12 10:50:39;;;;;;;8.60;5.50;;;21.00;42.80;;;;;;5052972;28;20063;-39
2022/12/12 10:53:08;;;;;;;6.22;5.07;;;21.10;42.90;;;;;;5053558;28;20055;-40
2022/12/12 10:55:39;;;;;;;8.10;5.10;;;21.10;42.90;;;;;;5053543;28;20041;-40
2022/12/12 10:58:06;;;;;;;9.57;6.45;;;21.10;42.80;;;;;;5053934;28;20405;-40
2022/12/12 11:00:34;;;;;;;8.27;6.10;;;21.10;42.90;;;;;;5053590;28;20133;-42
2022/12/12 11:03:10;;;;;;;8.55;5.40;;;21.10;42.80;;;;;;5053335;28;20049;-41
2022/12/12 11:05:37;;;;;;;8.48;5.47;;;21.10;42.80;;;;;;5053716;28;20060;-42
2022/12/12 11:08:04;;;;;;;7.40;5.90;;;21.10;42.80;;;;;;5053540;28;20051;-42
2022/12/12 11:10:33;;;;;;;8.07;5.53;;;21.10;42.80;;;;;;5053719;28;20056;-39
2022/12/12 11:13:01;;;;;;;8.38;5.80;;;21.20;42.90;;;;;;5053105;28;20049;-39
2022/12/12 11:15:30;;;;;;;7.82;5.47;;;21.20;42.80;;;;;;5052833;28;20063;-40
2022/12/12 11:17:57;;;;;;;8.25;5.60;;;21.20;42.80;;;;;;5053378;28;20053;-42
2022/12/12 11:20:24;;;;;;;7.85;5.28;;;21.20;42.80;;;;;;5053330;28;20053;-40
2022/12/12 11:22:51;;;;;;;8.25;5.22;;;21.20;42.80;;;;;;5053365;28;20128;-40
2022/12/12 11:25:28;;;;;;;7.95;5.60;;;21.20;42.80;;;;;;5053064;28;20611;-40
2022/12/12 11:27:56;;;;;;;7.18;5.20;;;21.30;42.80;;;;;;5052876;28;20053;-43
2022/12/12 11:30:26;;;;;;;8.75;5.55;;;21.20;42.70;;;;;;5052796;28;20060;-42
2022/12/12 11:32:53;;;;;;;7.97;5.90;;;21.30;42.80;;;;;;5052486;28;20052;-40
2022/12/12 11:35:24;;;;;;;7.00;5.18;;;21.30;42.80;;;;;;5049608;28;20472;-40
2022/12/12 11:37:52;;;;;;;7.43;5.22;;;21.30;42.70;;;;;;5050429;28;20045;-42
2022/12/12 11:40:22;;;;;;;6.70;5.20;;;21.30;42.70;;;;;;5053122;28;20045;-38
2022/12/12 11:42:49;;;;;;;7.43;5.53;;;21.30;42.70;;;;;;5051518;28;20045;-40
2022/12/12 11:45:22;;;;;;;9.38;5.05;;;21.30;42.70;;;;;;5052539;28;20045;-40
2022/12/12 11:47:49;;;;;;;6.85;5.13;;;21.30;42.60;;;;;;5050495;28;20072;-40
2022/12/12 11:50:18;;;;;;;9.10;5.60;;;21.40;42.70;;;;;;5052458;28;20048;-42
2022/12/12 11:52:45;;;;;;;8.75;5.60;;;21.40;42.70;;;;;;5049705;28;20493;-38
2022/12/12 11:55:13;;;;;;;7.75;5.55;;;21.40;42.70;;;;;;5052172;28;20041;-38
2022/12/12 11:57:55;;;;;;;7.38;5.25;;;21.40;42.60;;;;;;5051676;28;20060;-41
2022/12/12 12:00:24;;;;;;;8.30;5.13;;;21.40;42.60;;;;;;5052006;28;20053;-41
2022/12/12 12:03:22;;;;;;;8.27;5.43;;;21.40;42.60;;;;;;5051259;28;20045;-42
2022/12/12 12:05:56;;;;;;;7.82;5.43;;;21.40;42.60;;;;;;5050463;28;20500;-40
2022/12/12 12:08:30;;;;;;;6.70;5.00;;;21.40;42.60;;;;;;5049360;28;20079;-40
2022/12/12 12:11:05;;;;;;;7.43;5.80;;;21.40;42.60;;;;;;5052025;28;20521;-42
2022/12/12 12:13:43;;;;;;;7.30;5.65;;;21.40;42.60;;;;;;5051749;28;20436;-39
2022/12/12 12:16:14;;;;;;;9.30;5.95;;;21.30;43.10;;;;;;5051677;28;20052;-43
2022/12/12 12:18:49;;;;;;;9.43;5.43;;;21.30;42.60;;;;;;5051581;28;20394;-42
2022/12/12 12:21:29;;;;;;;6.25;4.63;;;21.30;42.50;;;;;;5051905;28;20041;-43
2022/12/12 12:24:03;;;;;;;10.13;5.95;;;21.30;42.60;;;;;;5050983;28;20066;-40
2022/12/12 12:26:34;;;;;;;6.90;5.03;;;21.30;42.50;;;;;;5049989;28;20059;-40
2022/12/12 12:29:35;;;;;;;8.13;5.57;;;21.30;42.40;;;;;;5055331;28;20066;-43
2022/12/12 12:32:09;;;;;;;6.00;5.03;;;21.20;42.30;;;;;;5048970;28;20055;-42
2022/12/12 12:34:39;;;;;;;7.15;5.32;;;21.20;42.40;;;;;;5050712;28;20512;-42
2022/12/12 12:37:12;;;;;;;6.03;5.00;;;21.20;42.30;;;;;;5050444;28;20048;-40
2022/12/12 12:39:51;;;;;;;7.75;5.10;;;21.10;42.20;;;;;;5050850;28;20619;-40
2022/12/12 12:42:22;;;;;;;7.55;4.72;;;21.10;42.20;;;;;;5049379;28;20553;-41
2022/12/12 12:44:50;;;;;;;6.20;4.72;;;21.10;42.10;;;;;;5043495;28;20417;-40
2022/12/12 12:47:24;;;;;;;7.47;5.22;;;21.10;42.20;;;;;;5051344;28;20049;-38
2022/12/12 12:49:53;;;;;;;6.75;5.30;;;21.00;42.20;;;;;;5051320;28;20045;-40
2022/12/12 12:52:21;;;;;;;9.35;6.20;;;21.00;42.20;;;;;;5048313;28;20051;-40
2022/12/12 12:54:48;;;;;;;7.05;5.53;;;21.00;42.00;;;;;;5051260;28;20514;-40
2022/12/12 12:57:17;;;;;;;6.68;5.35;;;20.90;42.00;;;;;;5051412;28;20573;-40
2022/12/12 12:59:44;;;;;;;6.93;5.10;;;20.90;41.80;;;;;;5051659;28;20044;-42
2022/12/12 13:02:16;;;;;;;7.57;5.55;;;20.90;41.70;;;;;;5051455;28;20045;-40
2022/12/12 13:04:46;;;;;;;7.50;5.57;;;20.80;41.60;;;;;;5051574;28;20490;-39
2022/12/12 13:07:16;;;;;;;8.73;5.22;;;20.70;41.60;;;;;;5051341;28;20055;-40
2022/12/12 13:09:46;;;;;;;7.88;5.05;;;20.70;41.70;;;;;;5050960;28;20184;-38
2022/12/12 13:12:16;;;;;;;5.88;4.68;;;20.60;41.70;;;;;;5049886;28;20470;-39